JAL3760 RJFG-RJFK
Flight info
| Callsign | JAL3760 |
|---|---|
| Flight time | 0h 23m |
| Altitude | 12000 |
| Route | KAGYA KINKO |
| Aircraft | B738/M-SDE2E3FGHIRWXY/LB1 |
Departure
| Time | 2026-04-25 14:57 |
|---|---|
| Airport | New Tanegashima Airport (RJFG) |
Arrival
| Time | 2026-04-25 15:20 |
|---|---|
| Airport | Kagoshima Airport (RJFK) |
| Time | Latitude | Longitude | Altitude | Speed | Heading |
|---|---|---|---|---|---|
| 2026-04-25 14:43 | 30.60864 | 130.99121 | 779 ft | 0 kts | 32° |
| 2026-04-25 14:49 | 30.60856 | 130.99115 | 779 ft | 3 kts | 52° |
| 2026-04-25 14:49 | 30.60851 | 130.99105 | 779 ft | 3 kts | 126° |
| 2026-04-25 14:50 | 30.60865 | 130.99089 | 779 ft | 3 kts | 141° |
| 2026-04-25 14:50 | 30.60881 | 130.99074 | 780 ft | 3 kts | 136° |
| 2026-04-25 14:50 | 30.60892 | 130.99060 | 780 ft | 1 kts | 122° |
| 2026-04-25 14:50 | 30.60895 | 130.99054 | 780 ft | 0 kts | 122° |
| 2026-04-25 14:51 | 30.60895 | 130.99055 | 780 ft | 0 kts | 122° |
| 2026-04-25 14:52 | 30.60894 | 130.99056 | 780 ft | 1 kts | 124° |
| 2026-04-25 14:52 | 30.60878 | 130.99068 | 780 ft | 8 kts | 156° |
| 2026-04-25 14:53 | 30.60767 | 130.99038 | 779 ft | 16 kts | 227° |
| 2026-04-25 14:53 | 30.60674 | 130.98968 | 781 ft | 16 kts | 214° |
| 2026-04-25 14:53 | 30.60686 | 130.98839 | 779 ft | 23 kts | 302° |
| 2026-04-25 14:53 | 30.60792 | 130.98655 | 783 ft | 30 kts | 313° |
| 2026-04-25 14:54 | 30.60805 | 130.98604 | 783 ft | 2 kts | 148° |
| 2026-04-25 14:54 | 30.60795 | 130.98643 | 783 ft | 12 kts | 115° |
| 2026-04-25 14:54 | 30.60724 | 130.98772 | 781 ft | 26 kts | 123° |
| 2026-04-25 14:54 | 30.60600 | 130.98992 | 778 ft | 38 kts | 123° |
| 2026-04-25 14:55 | 30.60437 | 130.99283 | 774 ft | 47 kts | 123° |
| 2026-04-25 14:55 | 30.60243 | 130.99624 | 772 ft | 51 kts | 123° |
| 2026-04-25 14:55 | 30.60077 | 130.99923 | 768 ft | 25 kts | 114° |
| 2026-04-25 14:55 | 30.60032 | 130.99989 | 766 ft | 4 kts | 251° |
| 2026-04-25 14:56 | 30.60054 | 130.99959 | 767 ft | 8 kts | 311° |
| 2026-04-25 14:56 | 30.60200 | 130.99702 | 771 ft | 83 kts | 303° |
| 2026-04-25 14:56 | 30.60681 | 130.98861 | 781 ft | 164 kts | 308° |
| 2026-04-25 14:56 | 30.61429 | 130.97655 | 1314 ft | 192 kts | 305° |
| 2026-04-25 14:57 | 30.62288 | 130.96432 | 2201 ft | 191 kts | 336° |
| 2026-04-25 14:57 | 30.63502 | 130.96036 | 3163 ft | 192 kts | 356° |
| 2026-04-25 14:57 | 30.64929 | 130.95750 | 3488 ft | 222 kts | 355° |
| 2026-04-25 14:57 | 30.66527 | 130.95410 | 3769 ft | 243 kts | 353° |
| 2026-04-25 14:58 | 30.68223 | 130.95016 | 4326 ft | 251 kts | 352° |
| 2026-04-25 14:58 | 30.69936 | 130.94592 | 5021 ft | 256 kts | 352° |
| 2026-04-25 14:58 | 30.71751 | 130.94129 | 5437 ft | 275 kts | 350° |
| 2026-04-25 14:58 | 30.73645 | 130.93629 | 6314 ft | 279 kts | 349° |
| 2026-04-25 14:59 | 30.75546 | 130.93117 | 7257 ft | 282 kts | 348° |
| 2026-04-25 14:59 | 30.77472 | 130.92596 | 8125 ft | 287 kts | 347° |
| 2026-04-25 14:59 | 30.79407 | 130.92067 | 9032 ft | 290 kts | 345° |
| 2026-04-25 14:59 | 30.81379 | 130.91395 | 9953 ft | 294 kts | 341° |
| 2026-04-25 15:00 | 30.83353 | 130.90643 | 10571 ft | 308 kts | 340° |
| 2026-04-25 15:00 | 30.85448 | 130.89837 | 10759 ft | 335 kts | 340° |
| 2026-04-25 15:00 | 30.87750 | 130.88965 | 10953 ft | 360 kts | 340° |
| 2026-04-25 15:00 | 30.90214 | 130.88044 | 11193 ft | 381 kts | 340° |
| 2026-04-25 15:01 | 30.92760 | 130.87101 | 11805 ft | 384 kts | 340° |
| 2026-04-25 15:01 | 30.95323 | 130.86153 | 11993 ft | 391 kts | 340° |
| 2026-04-25 15:01 | 30.97969 | 130.85171 | 12019 ft | 405 kts | 340° |
| 2026-04-25 15:01 | 31.00676 | 130.84165 | 12013 ft | 409 kts | 340° |
| 2026-04-25 15:02 | 31.03375 | 130.83163 | 12004 ft | 406 kts | 340° |
| 2026-04-25 15:02 | 31.06067 | 130.82163 | 12004 ft | 406 kts | 340° |
| 2026-04-25 15:02 | 31.08757 | 130.81163 | 12006 ft | 405 kts | 340° |
| 2026-04-25 15:02 | 31.11440 | 130.80164 | 12016 ft | 406 kts | 340° |
| 2026-04-25 15:03 | 31.14131 | 130.79161 | 12018 ft | 406 kts | 340° |
| 2026-04-25 15:03 | 31.16828 | 130.78156 | 12019 ft | 407 kts | 340° |
| 2026-04-25 15:03 | 31.19521 | 130.77152 | 12021 ft | 407 kts | 340° |
| 2026-04-25 15:03 | 31.22223 | 130.76142 | 12020 ft | 408 kts | 340° |
| 2026-04-25 15:04 | 31.24925 | 130.75133 | 12016 ft | 408 kts | 340° |
| 2026-04-25 15:04 | 31.27629 | 130.74122 | 12018 ft | 407 kts | 340° |
| 2026-04-25 15:04 | 31.30353 | 130.73206 | 12005 ft | 409 kts | 348° |
| 2026-04-25 15:04 | 31.33198 | 130.73269 | 12019 ft | 413 kts | 10° |
| 2026-04-25 15:05 | 31.35878 | 130.74409 | 11434 ft | 412 kts | 30° |
| 2026-04-25 15:05 | 31.38146 | 130.76343 | 11262 ft | 394 kts | 39° |
| 2026-04-25 15:05 | 31.40199 | 130.78337 | 11142 ft | 372 kts | 39° |
| 2026-04-25 15:06 | 31.43983 | 130.81984 | 10893 ft | 335 kts | 38° |
| 2026-04-25 15:06 | 31.45751 | 130.83649 | 10782 ft | 319 kts | 38° |
| 2026-04-25 15:06 | 31.47442 | 130.85238 | 10673 ft | 304 kts | 38° |
| 2026-04-25 15:06 | 31.49057 | 130.86750 | 10484 ft | 293 kts | 38° |
| 2026-04-25 15:07 | 31.50651 | 130.88235 | 10141 ft | 290 kts | 36° |
| 2026-04-25 15:07 | 31.52435 | 130.89247 | 9780 ft | 285 kts | 9° |
| 2026-04-25 15:07 | 31.54376 | 130.89183 | 9370 ft | 277 kts | 346° |
| 2026-04-25 15:07 | 31.56161 | 130.88369 | 8837 ft | 276 kts | 329° |
| 2026-04-25 15:08 | 31.57828 | 130.87230 | 8278 ft | 279 kts | 328° |
| 2026-04-25 15:08 | 31.59467 | 130.86078 | 8011 ft | 270 kts | 328° |
| 2026-04-25 15:08 | 31.61062 | 130.84976 | 7730 ft | 262 kts | 329° |
| 2026-04-25 15:08 | 31.62616 | 130.83917 | 7498 ft | 254 kts | 329° |
| 2026-04-25 15:09 | 31.64125 | 130.82893 | 7216 ft | 248 kts | 330° |
| 2026-04-25 15:09 | 31.65596 | 130.81900 | 6997 ft | 240 kts | 330° |
| 2026-04-25 15:09 | 31.68478 | 130.79954 | 6354 ft | 236 kts | 331° |
| 2026-04-25 15:10 | 31.69923 | 130.78979 | 5926 ft | 239 kts | 332° |
| 2026-04-25 15:10 | 31.71363 | 130.78008 | 5571 ft | 238 kts | 332° |
| 2026-04-25 15:10 | 31.74208 | 130.76086 | 4631 ft | 240 kts | 334° |
| 2026-04-25 15:11 | 31.75663 | 130.75104 | 4405 ft | 238 kts | 334° |
| 2026-04-25 15:11 | 31.77102 | 130.74130 | 4243 ft | 235 kts | 334° |
| 2026-04-25 15:11 | 31.78526 | 130.73166 | 4032 ft | 245 kts | 335° |
| 2026-04-25 15:12 | 31.81630 | 130.71078 | 5366 ft | 238 kts | 328° |
| 2026-04-25 15:12 | 31.82756 | 130.69479 | 5060 ft | 266 kts | 288° |
| 2026-04-25 15:12 | 31.82840 | 130.67352 | 5041 ft | 263 kts | 250° |
| 2026-04-25 15:12 | 31.82621 | 130.66685 | 5034 ft | 260 kts | 237° |
| 2026-04-25 15:13 | 31.80508 | 130.64304 | 5034 ft | 253 kts | 203° |
| 2026-04-25 15:13 | 31.77302 | 130.62742 | 5013 ft | 247 kts | 182° |
| 2026-04-25 15:13 | 31.75630 | 130.62979 | 5034 ft | 240 kts | 157° |
| 2026-04-25 15:14 | 31.74097 | 130.63693 | 5015 ft | 233 kts | 153° |
| 2026-04-25 15:14 | 31.72637 | 130.64433 | 4937 ft | 224 kts | 153° |
| 2026-04-25 15:14 | 31.71232 | 130.65149 | 4860 ft | 216 kts | 152° |
| 2026-04-25 15:14 | 31.69869 | 130.65836 | 4691 ft | 212 kts | 152° |
| 2026-04-25 15:15 | 31.68521 | 130.66510 | 4462 ft | 210 kts | 152° |
| 2026-04-25 15:15 | 31.67170 | 130.67175 | 4215 ft | 210 kts | 152° |
| 2026-04-25 15:15 | 31.65904 | 130.67987 | 3912 ft | 205 kts | 131° |
| 2026-04-25 15:15 | 31.65263 | 130.69408 | 3691 ft | 197 kts | 96° |
| 2026-04-25 15:16 | 31.65497 | 130.70962 | 3492 ft | 196 kts | 67° |
| 2026-04-25 15:16 | 31.66166 | 130.72350 | 3280 ft | 196 kts | 63° |
| 2026-04-25 15:16 | 31.67558 | 130.75048 | 2985 ft | 186 kts | 63° |
| 2026-04-25 15:17 | 31.68924 | 130.77470 | 2813 ft | 174 kts | 47° |
| 2026-04-25 15:17 | 31.70088 | 130.77932 | 2600 ft | 192 kts | 359° |
| 2026-04-25 15:17 | 31.71289 | 130.77165 | 2368 ft | 207 kts | 314° |
| 2026-04-25 15:18 | 31.72290 | 130.75952 | 1940 ft | 205 kts | 330° |
| 2026-04-25 15:18 | 31.74764 | 130.74955 | 1530 ft | 171 kts | 354° |
| 2026-04-25 15:18 | 31.75861 | 130.74670 | 1612 ft | 156 kts | 350° |
| 2026-04-25 15:19 | 31.76892 | 130.74140 | 1661 ft | 168 kts | 338° |
| 2026-04-25 15:19 | 31.77232 | 130.73937 | 1523 ft | 171 kts | 339° |
| 2026-04-25 15:19 | 31.78920 | 130.72895 | 1030 ft | 153 kts | 335° |
| 2026-04-25 15:19 | 31.79830 | 130.72281 | 921 ft | 144 kts | 334° |
| 2026-04-25 15:20 | 31.80578 | 130.71780 | 918 ft | 100 kts | 328° |
| 2026-04-25 15:20 | 31.80848 | 130.71463 | 915 ft | 22 kts | 269° |
| 2026-04-25 15:20 | 31.80785 | 130.71412 | 912 ft | 11 kts | 168° |
| 2026-04-25 15:20 | 31.80715 | 130.71457 | 910 ft | 12 kts | 150° |
| 2026-04-25 15:21 | 31.80643 | 130.71504 | 909 ft | 12 kts | 150° |
| 2026-04-25 15:21 | 31.80573 | 130.71551 | 910 ft | 11 kts | 150° |
| 2026-04-25 15:21 | 31.80505 | 130.71595 | 907 ft | 11 kts | 152° |
| 2026-04-25 15:21 | 31.80439 | 130.71637 | 906 ft | 11 kts | 150° |
| 2026-04-25 15:22 | 31.80377 | 130.71679 | 909 ft | 10 kts | 150° |
| 2026-04-25 15:22 | 31.80316 | 130.71720 | 906 ft | 10 kts | 150° |
| 2026-04-25 15:22 | 31.80258 | 130.71713 | 906 ft | 11 kts | 231° |
| 2026-04-25 15:22 | 31.80220 | 130.71637 | 902 ft | 9 kts | 240° |
| 2026-04-25 15:23 | 31.80214 | 130.71625 | 902 ft | 0 kts | 239° |